createdAt,value
2022-12-01T00:01:40.184Z,13.70
2022-12-01T00:04:42.972Z,9.57
2022-12-01T00:07:47.942Z,11.20
2022-12-01T00:10:50.655Z,15.43
2022-12-01T00:13:53.358Z,17.30
2022-12-01T00:16:56.324Z,11.70
2022-12-01T00:19:58.748Z,9.23
2022-12-01T00:23:02.013Z,10.23
2022-12-01T00:26:05.646Z,11.63
2022-12-01T00:29:08.531Z,11.10
2022-12-01T00:32:11.031Z,12.80
2022-12-01T00:35:14.802Z,8.23
2022-12-01T00:38:17.207Z,10.90
2022-12-01T00:41:20.976Z,6.57
2022-12-01T00:44:23.579Z,9.73
2022-12-01T00:47:26.416Z,13.30
2022-12-01T00:50:29.084Z,15.90
2022-12-01T00:53:31.997Z,7.82
2022-12-01T00:56:34.490Z,7.10
2022-12-01T00:59:37.314Z,6.57
2022-12-01T01:02:40.363Z,10.60
2022-12-01T01:05:43.842Z,9.38
2022-12-01T01:08:46.549Z,9.00
2022-12-01T01:11:49.445Z,6.90
2022-12-01T01:14:51.863Z,7.85
2022-12-01T01:17:54.752Z,9.40
2022-12-01T01:21:03.536Z,12.48
2022-12-01T01:24:06.595Z,8.45
2022-12-01T01:27:09.022Z,7.80
2022-12-01T01:30:12.380Z,5.12
2022-12-01T01:33:15.329Z,9.00
2022-12-01T01:36:19.319Z,7.20
2022-12-01T01:39:22.208Z,6.37
2022-12-01T01:42:24.932Z,10.18
2022-12-01T01:45:29.852Z,9.02
2022-12-01T01:48:35.632Z,5.50
2022-12-01T01:51:51.219Z,12.88
2022-12-01T01:54:55.758Z,9.48
2022-12-01T01:57:58.442Z,7.53
2022-12-01T02:01:01.258Z,7.10
2022-12-01T02:04:04.410Z,7.05
2022-12-01T02:07:08.597Z,11.18
2022-12-01T02:10:14.404Z,7.40
2022-12-01T02:13:19.882Z,9.82
2022-12-01T02:16:43.930Z,8.43
2022-12-01T02:20:05.374Z,8.27
2022-12-01T02:23:29.357Z,6.28
2022-12-01T02:27:02.427Z,9.23
2022-12-01T02:30:44.322Z,9.50
2022-12-01T02:34:02.841Z,7.40
2022-12-01T02:37:23.193Z,10.00
2022-12-01T02:40:39.596Z,9.07
2022-12-01T02:44:07.280Z,5.80
2022-12-01T02:47:14.613Z,6.03
2022-12-01T02:50:17.725Z,8.03
2022-12-01T02:53:20.688Z,8.98
2022-12-01T02:56:24.036Z,9.95
2022-12-01T02:59:26.562Z,7.55
2022-12-01T03:02:43.361Z,7.35
2022-12-01T03:05:56.425Z,5.15
2022-12-01T03:09:20.602Z,11.20
2022-12-01T03:12:35.215Z,5.22
2022-12-01T03:15:58.398Z,6.30
2022-12-01T03:19:05.075Z,8.50
2022-12-01T03:22:08.688Z,5.97
2022-12-01T03:25:13.269Z,6.55
2022-12-01T03:28:21.993Z,12.13
2022-12-01T03:31:31.796Z,7.70
2022-12-01T03:35:16.192Z,7.03
2022-12-01T03:38:24.147Z,10.15
2022-12-01T03:41:35.370Z,10.45
2022-12-01T03:44:59.771Z,8.00
2022-12-01T03:48:02.942Z,7.80
2022-12-01T03:51:32.714Z,6.90
2022-12-01T03:54:52.184Z,10.88
2022-12-01T03:58:10.689Z,8.75
2022-12-01T04:01:13.580Z,11.05
2022-12-01T04:04:16.796Z,8.02
2022-12-01T04:07:19.987Z,6.15
2022-12-01T04:10:23.155Z,4.72
2022-12-01T04:13:26.665Z,7.07
2022-12-01T04:16:30.555Z,10.18
2022-12-01T04:19:33.056Z,4.72
2022-12-01T04:22:35.841Z,6.05
2022-12-01T04:25:38.301Z,7.70
2022-12-01T04:28:41.196Z,7.10
2022-12-01T04:31:43.747Z,8.57
2022-12-01T04:34:46.502Z,7.72
2022-12-01T04:37:48.936Z,4.15
2022-12-01T04:40:51.819Z,9.35
2022-12-01T04:43:55.181Z,7.43
2022-12-01T04:46:58.040Z,5.68
2022-12-01T04:50:00.658Z,10.43
2022-12-01T04:53:04.284Z,6.47
2022-12-01T04:56:07.283Z,5.20
2022-12-01T04:59:10.604Z,6.43
2022-12-01T05:02:13.113Z,6.72
2022-12-01T05:05:16.012Z,8.88
2022-12-01T05:08:18.558Z,5.65
2022-12-01T05:11:21.451Z,9.07
2022-12-01T05:14:23.902Z,4.78
2022-12-01T05:17:26.569Z,7.82
2022-12-01T05:20:47.618Z,7.53
2022-12-01T05:23:50.297Z,18.42
2022-12-01T05:26:52.790Z,7.82
2022-12-01T05:29:55.638Z,6.30
2022-12-01T05:32:58.126Z,9.18
2022-12-01T05:36:00.986Z,7.30
2022-12-01T05:39:04.729Z,8.82
2022-12-01T05:42:07.477Z,8.02
2022-12-01T05:45:10.414Z,8.63
2022-12-01T05:48:13.191Z,8.98
2022-12-01T05:51:17.029Z,9.13
2022-12-01T05:54:19.847Z,8.63
2022-12-01T05:57:22.352Z,8.57
2022-12-01T06:00:25.155Z,9.50
2022-12-01T06:03:27.828Z,13.85
2022-12-01T06:06:30.217Z,9.68
2022-12-01T06:09:32.975Z,11.88
2022-12-01T06:12:35.715Z,11.68
2022-12-01T06:15:38.527Z,15.70
2022-12-01T06:18:41.088Z,19.02
2022-12-01T06:21:43.901Z,9.75
2022-12-01T06:24:46.291Z,12.18
2022-12-01T06:27:49.460Z,13.43
2022-12-01T06:30:51.838Z,17.40
2022-12-01T06:33:54.574Z,16.08
2022-12-01T06:36:57.048Z,10.40
2022-12-01T06:39:59.750Z,9.48
2022-12-01T06:43:02.859Z,7.18
2022-12-01T06:46:06.387Z,11.07
2022-12-01T06:49:12.655Z,10.02
2022-12-01T06:52:15.484Z,11.93
2022-12-01T06:55:18.004Z,9.82
2022-12-01T06:58:20.898Z,14.38
2022-12-01T07:01:23.661Z,10.25
2022-12-01T07:04:27.284Z,7.62
2022-12-01T07:07:29.852Z,11.38
2022-12-01T07:10:32.571Z,12.15
2022-12-01T07:13:35.802Z,12.43
2022-12-01T07:16:38.757Z,5.60
2022-12-01T07:19:41.462Z,10.48
2022-12-01T07:22:44.443Z,14.25
2022-12-01T07:25:46.901Z,9.02
2022-12-01T07:28:49.618Z,10.82
2022-12-01T07:31:52.163Z,19.23
2022-12-01T07:34:54.935Z,10.02
2022-12-01T07:37:57.471Z,9.85
2022-12-01T07:41:04.306Z,11.30
2022-12-01T07:44:06.969Z,10.35
2022-12-01T07:47:09.669Z,12.55
2022-12-01T07:50:12.354Z,14.25
2022-12-01T07:53:15.204Z,15.20
2022-12-01T07:56:18.832Z,10.70
2022-12-01T07:59:21.678Z,7.70
2022-12-01T08:02:24.549Z,11.07
2022-12-01T08:05:27.309Z,7.00
2022-12-01T08:08:32.281Z,12.45
2022-12-01T08:11:36.001Z,9.60
2022-12-01T08:14:38.765Z,20.65
2022-12-01T08:17:41.476Z,19.70
2022-12-01T08:20:43.976Z,11.12
2022-12-01T08:23:47.246Z,11.80
2022-12-01T08:26:49.807Z,16.77
2022-12-01T08:29:52.582Z,14.80
2022-12-01T08:32:56.952Z,9.52
2022-12-01T08:36:02.492Z,11.85
2022-12-01T08:39:08.331Z,12.48
2022-12-01T08:42:11.154Z,11.65
2022-12-01T08:45:13.700Z,16.62
2022-12-01T08:48:16.695Z,15.05
2022-12-01T08:51:19.550Z,11.73
2022-12-01T08:54:22.797Z,14.68
2022-12-01T08:57:25.272Z,14.85
2022-12-01T09:00:28.816Z,11.65
2022-12-01T09:03:31.954Z,17.12
2022-12-01T09:06:39.870Z,12.85
2022-12-01T09:09:43.776Z,13.90
2022-12-01T09:12:46.765Z,17.05
2022-12-01T09:16:01.365Z,15.82
2022-12-01T09:19:05.174Z,16.95
2022-12-01T09:22:08.810Z,12.05
2022-12-01T09:25:14.750Z,17.15
2022-12-01T09:28:18.700Z,17.05
2022-12-01T09:31:23.531Z,16.75
2022-12-01T09:34:27.430Z,13.90
2022-12-01T09:37:30.198Z,17.65
2022-12-01T09:40:37.200Z,12.00
2022-12-01T09:43:45.755Z,13.05
2022-12-01T09:46:53.183Z,14.27
2022-12-01T09:50:05.462Z,13.62
2022-12-01T09:53:11.547Z,20.25
2022-12-01T09:56:27.118Z,17.50
2022-12-01T09:59:37.725Z,24.60
2022-12-01T10:03:06.671Z,17.33
2022-12-01T10:06:32.053Z,18.30
2022-12-01T10:09:56.015Z,14.32
2022-12-01T10:13:00.474Z,11.38
2022-12-01T10:16:12.415Z,14.38
2022-12-01T10:19:32.987Z,16.08
2022-12-01T10:23:23.202Z,15.93
2022-12-01T10:26:44.200Z,9.32
2022-12-01T10:29:54.002Z,9.00
2022-12-01T10:33:01.163Z,11.00
2022-12-01T10:36:03.898Z,12.68
2022-12-01T10:39:07.504Z,9.90
2022-12-01T10:42:22.349Z,10.77
2022-12-01T10:45:28.113Z,11.88
2022-12-01T10:48:30.962Z,12.63
2022-12-01T10:51:51.441Z,13.18
2022-12-01T10:54:54.218Z,8.15
2022-12-01T10:58:03.444Z,10.20
2022-12-01T11:01:17.042Z,11.82
2022-12-01T11:04:42.605Z,8.85
2022-12-01T11:07:49.850Z,11.45
2022-12-01T11:10:52.912Z,9.10
2022-12-01T11:13:57.128Z,12.73
2022-12-01T11:17:37.381Z,11.50
2022-12-01T11:20:41.179Z,10.18
2022-12-01T11:23:49.197Z,11.77
2022-12-01T11:26:51.871Z,11.23
2022-12-01T11:30:04.826Z,9.27
2022-12-01T11:33:07.477Z,11.43
2022-12-01T11:36:25.479Z,9.55
2022-12-01T11:39:32.537Z,10.43
2022-12-01T11:42:37.068Z,15.55
2022-12-01T11:45:40.679Z,10.75
2022-12-01T11:48:58.184Z,9.85
2022-12-01T11:52:24.615Z,9.60
2022-12-01T11:55:29.876Z,9.88
2022-12-01T11:58:32.581Z,10.88
2022-12-01T12:01:53.131Z,10.48
2022-12-01T12:05:25.530Z,10.75
2022-12-01T12:08:40.114Z,10.00
2022-12-01T12:12:06.121Z,9.43
2022-12-01T12:15:27.469Z,9.50
2022-12-01T12:18:46.762Z,9.77
2022-12-01T12:22:04.837Z,8.95
2022-12-01T12:25:49.596Z,10.60
2022-12-01T12:29:14.253Z,8.40
2022-12-01T12:32:31.457Z,10.82
2022-12-01T12:35:51.518Z,7.85
2022-12-01T12:39:18.423Z,7.93
2022-12-01T12:42:39.160Z,7.30
2022-12-01T12:46:00.789Z,6.57
2022-12-01T12:49:21.043Z,6.68
2022-12-01T12:52:35.118Z,6.95
2022-12-01T12:55:49.508Z,9.32
2022-12-01T12:58:55.202Z,8.98
2022-12-01T13:02:08.991Z,8.45
2022-12-01T13:05:30.358Z,7.82
2022-12-01T13:08:39.989Z,11.20
2022-12-01T13:11:49.794Z,10.82
2022-12-01T13:15:01.208Z,11.05
2022-12-01T13:18:16.997Z,9.52
2022-12-01T13:21:21.482Z,8.57
2022-12-01T13:24:31.244Z,9.50
2022-12-01T13:27:40.666Z,8.93
2022-12-01T13:31:16.168Z,8.55
2022-12-01T13:34:31.558Z,7.97
2022-12-01T13:37:38.271Z,8.30
2022-12-01T13:40:41.083Z,6.72
2022-12-01T13:44:18.566Z,9.85
2022-12-01T13:47:36.864Z,13.13
2022-12-01T13:50:48.843Z,8.80
2022-12-01T13:54:28.632Z,12.00
2022-12-01T13:57:36.879Z,11.27
2022-12-01T14:00:40.118Z,10.15
2022-12-01T14:03:56.918Z,8.32
2022-12-01T14:07:32.075Z,9.52
2022-12-01T14:10:34.968Z,6.68
2022-12-01T14:14:10.032Z,10.65
2022-12-01T14:17:35.092Z,6.72
2022-12-01T14:20:45.918Z,7.10
2022-12-01T14:23:57.106Z,7.10
2022-12-01T14:26:59.896Z,8.77
2022-12-01T14:30:45.068Z,8.18
2022-12-01T14:34:18.757Z,11.00
2022-12-01T14:37:25.865Z,7.80
2022-12-01T14:40:30.259Z,8.75
2022-12-01T14:43:51.576Z,7.50
2022-12-01T14:47:06.107Z,8.60
2022-12-01T14:50:18.496Z,15.45
2022-12-01T14:53:41.026Z,8.27
2022-12-01T14:56:47.042Z,6.80
2022-12-01T15:00:13.130Z,7.82
2022-12-01T15:03:15.923Z,8.93
2022-12-01T15:06:20.979Z,10.30
2022-12-01T15:09:33.553Z,7.65
2022-12-01T15:12:37.376Z,11.82
2022-12-01T15:15:53.473Z,9.05
2022-12-01T15:18:56.422Z,8.75
2022-12-01T15:22:02.572Z,4.95
2022-12-01T15:25:08.663Z,9.88
2022-12-01T15:28:17.730Z,7.12
2022-12-01T15:31:20.178Z,8.73
2022-12-01T15:34:28.681Z,5.75
2022-12-01T15:37:42.437Z,9.10
2022-12-01T15:41:21.270Z,9.23
2022-12-01T15:44:30.232Z,6.40
2022-12-01T15:47:54.332Z,8.23
2022-12-01T15:51:34.904Z,8.25
2022-12-01T15:54:38.751Z,10.07
2022-12-01T15:57:46.750Z,4.95
2022-12-01T16:04:04.575Z,14.63
2022-12-01T16:07:09.912Z,7.65
2022-12-01T16:10:36.101Z,13.40
2022-12-01T16:13:47.480Z,6.43
2022-12-01T16:16:51.484Z,8.00
2022-12-01T16:20:26.091Z,7.18
2022-12-01T16:23:30.078Z,6.00
2022-12-01T16:26:33.848Z,8.35
2022-12-01T16:29:53.376Z,10.57
2022-12-01T16:33:19.228Z,14.18
2022-12-01T16:36:26.685Z,6.40
2022-12-01T16:39:29.478Z,8.23
2022-12-01T16:42:32.192Z,12.23
2022-12-01T16:45:37.285Z,11.88
2022-12-01T16:48:40.242Z,10.63
2022-12-01T16:51:55.519Z,6.93
2022-12-01T16:54:59.841Z,8.38
2022-12-01T16:58:02.355Z,9.40
2022-12-01T17:01:06.266Z,8.48
2022-12-01T17:04:08.734Z,10.85
2022-12-01T17:07:11.498Z,16.27
2022-12-01T17:10:14.523Z,8.30
2022-12-01T17:13:18.638Z,14.20
2022-12-01T17:16:21.256Z,15.60
2022-12-01T17:19:24.043Z,17.37
2022-12-01T17:22:26.439Z,19.02
2022-12-01T17:25:29.208Z,13.02
2022-12-01T17:28:31.694Z,11.35
2022-12-01T17:31:34.548Z,10.32
2022-12-01T17:34:37.075Z,11.70
2022-12-01T17:37:39.823Z,12.27
2022-12-01T17:40:42.442Z,16.75
2022-12-01T17:43:45.212Z,17.48
2022-12-01T17:46:47.731Z,22.95
2022-12-01T17:49:50.499Z,11.80
2022-12-01T17:52:52.884Z,12.18
2022-12-01T17:55:55.702Z,18.00
2022-12-01T17:58:58.231Z,12.10
2022-12-01T18:02:01.020Z,14.63
2022-12-01T18:05:04.282Z,14.55
2022-12-01T18:08:06.870Z,11.40
2022-12-01T18:11:12.672Z,12.88
2022-12-01T18:14:17.891Z,16.70
2022-12-01T18:17:20.774Z,18.50
2022-12-01T18:20:23.331Z,16.55
2022-12-01T18:23:26.347Z,17.27
2022-12-01T18:26:31.622Z,12.27
2022-12-01T18:29:34.926Z,14.38
2022-12-01T18:32:37.626Z,12.57
2022-12-01T18:35:44.897Z,12.93
2022-12-01T18:38:48.640Z,15.00
2022-12-01T18:41:52.283Z,20.90
2022-12-01T18:44:56.192Z,22.73
2022-12-01T18:47:58.916Z,19.25
2022-12-01T18:51:05.921Z,13.23
2022-12-01T18:54:15.367Z,17.20
2022-12-01T18:57:19.104Z,11.20
2022-12-01T19:00:22.224Z,15.40
2022-12-01T19:03:31.265Z,25.58
2022-12-01T19:06:36.304Z,15.73
2022-12-01T19:09:38.890Z,15.40
2022-12-01T19:12:41.672Z,16.15
2022-12-01T19:15:44.203Z,25.60
2022-12-01T19:18:47.839Z,18.40
2022-12-01T19:21:51.077Z,18.23
2022-12-01T19:24:54.323Z,21.75
2022-12-01T19:27:56.993Z,15.05
2022-12-01T19:31:00.049Z,19.20
2022-12-01T19:34:04.159Z,17.50
2022-12-01T19:37:07.148Z,17.20
2022-12-01T19:40:10.141Z,19.20
2022-12-01T19:43:13.337Z,20.17
2022-12-01T19:46:19.259Z,13.65
2022-12-01T19:49:22.307Z,18.80
2022-12-01T19:52:24.727Z,17.73
2022-12-01T19:55:27.533Z,13.77
2022-12-01T19:58:33.294Z,16.48
2022-12-01T20:01:36.082Z,18.10
2022-12-01T20:04:39.602Z,11.65
2022-12-01T20:07:42.129Z,13.23
2022-12-01T20:10:49.121Z,16.35
2022-12-01T20:13:52.133Z,13.90
2022-12-01T20:16:56.064Z,18.12
2022-12-01T20:19:58.952Z,22.05
2022-12-01T20:23:01.635Z,18.55
2022-12-01T20:26:07.372Z,14.90
2022-12-01T20:29:19.159Z,16.27
2022-12-01T20:32:23.835Z,14.52
2022-12-01T20:35:26.836Z,18.98
2022-12-01T20:38:29.267Z,18.87
2022-12-01T20:41:32.102Z,15.15
2022-12-01T20:44:35.859Z,18.10
2022-12-01T20:47:38.622Z,16.92
2022-12-01T20:50:41.402Z,28.73
2022-12-01T20:53:59.679Z,23.77
2022-12-01T20:57:07.433Z,16.10
2022-12-01T21:00:13.149Z,16.20
2022-12-01T21:03:15.666Z,32.67
2022-12-01T21:06:18.768Z,20.95
2022-12-01T21:09:21.704Z,12.43
2022-12-01T21:12:43.723Z,20.15
2022-12-01T21:15:58.630Z,14.40
2022-12-01T21:19:15.873Z,15.23
2022-12-01T21:22:19.278Z,17.58
2022-12-01T21:25:24.394Z,16.73
2022-12-01T21:28:27.393Z,32.70
2022-12-01T21:31:31.839Z,19.30
2022-12-01T21:34:35.750Z,17.92
2022-12-01T21:37:38.590Z,17.62
2022-12-01T21:40:43.804Z,15.15
2022-12-01T21:43:46.658Z,17.67
2022-12-01T21:46:57.603Z,12.50
2022-12-01T21:50:03.519Z,17.05
2022-12-01T21:53:15.723Z,15.95
2022-12-01T21:56:23.961Z,25.08
2022-12-01T21:59:28.103Z,16.00
2022-12-01T22:02:50.030Z,21.10
2022-12-01T22:06:28.331Z,13.43
2022-12-01T22:09:31.703Z,13.18
2022-12-01T22:12:34.444Z,13.60
2022-12-01T22:15:41.394Z,33.35
2022-12-01T22:18:47.227Z,12.87
2022-12-01T22:21:54.718Z,21.45
2022-12-01T22:25:18.966Z,17.67
2022-12-01T22:28:24.160Z,15.73
2022-12-01T22:31:28.678Z,15.13
2022-12-01T22:34:31.317Z,11.02
2022-12-01T22:37:44.179Z,9.80
2022-12-01T22:41:20.464Z,9.65
2022-12-01T22:44:23.212Z,12.40
2022-12-01T22:47:31.563Z,20.15
2022-12-01T22:50:34.421Z,13.32
2022-12-01T22:53:36.822Z,10.55
2022-12-01T22:56:47.347Z,14.32
2022-12-01T22:59:50.618Z,22.17
2022-12-01T23:02:56.392Z,14.75
2022-12-01T23:05:58.890Z,14.05
2022-12-01T23:09:01.971Z,21.05
2022-12-01T23:12:24.109Z,16.40
2022-12-01T23:15:41.505Z,19.48
2022-12-01T23:18:44.061Z,17.77
2022-12-01T23:21:46.947Z,21.25
2022-12-01T23:24:49.625Z,18.10
2022-12-01T23:27:54.529Z,14.15
2022-12-01T23:30:59.603Z,15.30
2022-12-01T23:34:02.454Z,22.65
2022-12-01T23:37:21.663Z,24.77
2022-12-01T23:40:34.048Z,17.60
2022-12-01T23:43:42.749Z,15.23
2022-12-01T23:46:47.423Z,11.85
2022-12-01T23:50:06.767Z,21.27
2022-12-01T23:53:26.482Z,17.02
2022-12-01T23:56:31.618Z,25.35
2022-12-01T23:59:37.711Z,15.45
